Haithabu — DK7933 — position and weather

sailwx.info

Track history (hours):
 
Tides and Currents Weather Stations Pressure Air Temp Water Temp Dewpoint Dewpoint Depression Visibility Wind Speed Wind Dir Waves Ship Positions

Haithabu

Last reported at 2019-Dec-11 10:55 UTC. Time now 2019-Dec-11 13:27 UTC.
Position N 54°28' E 009°50'.

Length 40 m; draft 2 m.

MMSI: 211651920.

Date/timePositionNaut miles runAvg speedWind from/ knotsBaromVisibWave heightAir tempDewpointWater temp
2019-Dec-11 10:55N 54°28' E 009°50'0 0.0
2019-Dec-11 08:58N 54°28' E 009°50'0 0.0
2019-Dec-11 07:30N 54°28' E 009°50'0 0.0
2019-Dec-11 05:52N 54°28' E 009°50'0 0.0
2019-Dec-11 04:10N 54°28' E 009°50'0 0.0
2019-Dec-11 03:27N 54°28' E 009°50'0 0.0
2019-Dec-11 03:00N 54°28' E 009°50'0 0.0
2019-Dec-10 22:52N 54°28' E 009°50'0 0.0
2019-Dec-10 21:51N 54°28' E 009°50'0 0.0
2019-Dec-10 20:19N 54°28' E 009°50'16 8.4
2019-Dec-10 18:27N 54°28' E 010°17'2110.3
2019-Dec-10 16:26N 54°23' E 010°52'16 8.2
2019-Dec-10 14:29N 54°25' E 011°19'12 5.9
2019-Dec-10 12:33N 54°14' E 011°25'56 1.9
2019-Dec-09 06:59N 54°28' E 009°51'0 0.1
2019-Dec-09 04:30N 54°28' E 009°52'0 0.0
2019-Dec-09 03:28N 54°28' E 009°52'0 0.0
2019-Dec-08 22:25N 54°28' E 009°52'0 0.0
2019-Dec-08 20:20N 54°28' E 009°52'0 0.0
2019-Dec-08 19:50N 54°28' E 009°52'0 0.0
2019-Dec-08 17:58N 54°28' E 009°52'0 0.0
2019-Dec-08 16:47N 54°28' E 009°52'0 0.0
2019-Dec-08 12:44N 54°28' E 009°52'0 0.0
2019-Dec-08 10:58N 54°28' E 009°52'0 0.0
2019-Dec-08 09:52N 54°28' E 009°52'0 0.0
2019-Dec-08 09:00N 54°28' E 009°52'0 0.0
2019-Dec-08 03:22N 54°28' E 009°52'0 0.0
2019-Dec-08 02:52N 54°28' E 009°52'0 0.0
2019-Dec-08 02:24N 54°28' E 009°52'0 0.0
2019-Dec-08 01:22N 54°28' E 009°52'0 0.0
2019-Dec-07 23:57N 54°28' E 009°52'0 0.0
2019-Dec-07 23:30N 54°28' E 009°52'0 0.0
2019-Dec-07 21:20N 54°28' E 009°52'0 0.0
2019-Dec-07 20:25N 54°28' E 009°52'0 0.0
2019-Dec-07 15:30N 54°28' E 009°52'0 0.0
2019-Dec-07 14:29N 54°28' E 009°52'0 0.0
2019-Dec-07 13:51N 54°28' E 009°52'0 0.0
2019-Dec-07 10:30N 54°28' E 009°52'0 0.0
2019-Dec-07 09:27N 54°28' E 009°52'0 0.0
2019-Dec-07 08:19N 54°28' E 009°52'0 0.0
2019-Dec-07 07:00N 54°28' E 009°52'0 0.0
2019-Dec-07 06:23N 54°28' E 009°52'0 0.0
2019-Dec-07 04:28N 54°28' E 009°52'0 0.0
2019-Dec-07 02:51N 54°28' E 009°52'0 0.0
2019-Dec-07 00:58N 54°28' E 009°52'0 0.0
2019-Dec-07 00:00N 54°28' E 009°52'0 0.0
2019-Dec-06 23:30N 54°28' E 009°52'0 0.0
2019-Dec-06 21:29N 54°28' E 009°52'0 0.0
2019-Dec-06 20:51N 54°28' E 009°52'0 0.0
2019-Dec-06 19:59N 54°28' E 009°52'0 0.0
2019-Dec-06 19:30N 54°28' E 009°52'0 0.0
2019-Dec-06 17:55N 54°28' E 009°52'0 0.0
2019-Dec-06 16:59N 54°28' E 009°52'0 0.0
2019-Dec-06 15:56N 54°28' E 009°52'0 0.0
2019-Dec-06 14:30N 54°28' E 009°52'0 0.0
2019-Dec-06 13:46N 54°28' E 009°52'0 0.0
2019-Dec-06 12:58N 54°28' E 009°52'0 0.0
2019-Dec-06 12:28N 54°28' E 009°52'0 0.0
2019-Dec-06 11:50N 54°28' E 009°52'0 0.0
2019-Dec-06 10:53N 54°28' E 009°52'0 0.0
2019-Dec-06 06:59N 54°28' E 009°52'0 0.0
2019-Dec-06 06:21N 54°28' E 009°52'0 0.0
2019-Dec-06 04:30N 54°28' E 009°52'0 0.0
2019-Dec-06 01:47N 54°28' E 009°52'0 0.0
2019-Dec-06 01:27N 54°28' E 009°52'0 0.0
2019-Dec-05 22:17N 54°28' E 009°52'0 0.0
2019-Dec-05 19:29N 54°28' E 009°52'0 0.0
2019-Dec-05 18:30N 54°28' E 009°52'0 0.0
2019-Dec-05 17:23N 54°28' E 009°52'0 0.0
2019-Dec-05 16:28N 54°28' E 009°52'0 0.0
2019-Dec-05 15:26N 54°28' E 009°52'0 0.0
2019-Dec-05 13:27N 54°28' E 009°52'0 0.0
2019-Dec-05 12:52N 54°28' E 009°52'0 0.0
2019-Dec-05 08:36N 54°28' E 009°52'0 0.0
2019-Dec-05 05:42N 54°28' E 009°52'0 0.0
2019-Dec-05 05:20N 54°28' E 009°52'0 0.0
2019-Dec-05 04:56N 54°28' E 009°52'0 0.0
2019-Dec-05 01:50N 54°28' E 009°52'0 0.0
2019-Dec-05 00:39N 54°28' E 009°52'0 0.0
2019-Dec-04 18:49N 54°28' E 009°52'0 0.0
2019-Dec-04 16:53N 54°28' E 009°52'1 0.1
2019-Dec-04 12:00N 54°28' E 009°53'10 0.4
2019-Dec-03 11:25N 54°38' E 009°56'9 4.4
2019-Dec-03 09:25N 54°32' E 009°44'6 6.7
2019-Dec-03 08:35N 54°36' E 009°51'4 8.4
2019-Dec-03 08:09N 54°38' E 009°56'2 2.2
2019-Dec-03 07:26N 54°39' E 009°56'0 0.0
2019-Dec-03 06:29N 54°39' E 009°56'0 0.0
2019-Dec-03 05:28N 54°39' E 009°56'0 0.0
2019-Dec-03 04:30N 54°39' E 009°56'0 0.0
2019-Dec-03 03:50N 54°39' E 009°56'0 0.0
2019-Dec-03 03:26N 54°39' E 009°56'0 0.0
2019-Dec-03 00:24N 54°39' E 009°56'0 0.0
2019-Dec-02 22:59N 54°39' E 009°56'0 0.0
2019-Dec-02 22:27N 54°39' E 009°56'0 0.0
2019-Dec-02 17:04N 54°39' E 009°56'0 0.0
2019-Dec-02 16:59N 54°39' E 009°56'0 0.0
2019-Dec-02 15:51N 54°39' E 009°56'7 1.5
2019-Dec-02 11:24N 54°42' E 010°07'11 3.9
2019-Dec-02 08:28N 54°30' E 010°07'8 8.5
2019-Dec-02 07:30N 54°28' E 009°53'1 1.4
2019-Dec-02 07:00N 54°28' E 009°52'0 0.0
2019-Dec-02 05:53N 54°28' E 009°52'0 0.0
2019-Dec-02 04:24N 54°28' E 009°52'0 0.0
2019-Dec-02 03:50N 54°28' E 009°52'0 0.0
2019-Dec-02 03:08N 54°28' E 009°52'0 0.0
2019-Dec-02 01:29N 54°28' E 009°52'0 0.0
2019-Dec-01 23:29N 54°28' E 009°52'0 0.0
2019-Dec-01 19:59N 54°28' E 009°52'0 0.0
2019-Dec-01 18:26N 54°28' E 009°52'0 0.0
2019-Dec-01 16:25N 54°28' E 009°52'0 0.0
2019-Dec-01 15:56N 54°28' E 009°52'0 0.0
2019-Dec-01 13:55N 54°28' E 009°52'0 0.0
2019-Dec-01 12:58N 54°28' E 009°52'0 0.0
2019-Dec-01 12:00N 54°28' E 009°52'0 0.0
2019-Dec-01 11:30N 54°28' E 009°52'  
Track history (hours):
 
Tides and Currents Weather Stations Pressure Air Temp Water Temp Dewpoint Dewpoint Depression Visibility Wind Speed Wind Dir Waves Ship Positions

Haithabu

Last reported at 2019-Dec-11 10:55 UTC. Time now 2019-Dec-11 13:27 UTC.
Position N 54°28' E 009°50'.

Length 40 m; draft 2 m.

MMSI: 211651920.

Date/timePositionNaut miles runAvg speedWind from/ knotsBaromVisibWave heightAir tempDewpointWater temp
2019-Dec-11 10:55N 54°28' E 009°50'0 0.0
2019-Dec-11 08:58N 54°28' E 009°50'0 0.0
2019-Dec-11 07:30N 54°28' E 009°50'0 0.0
2019-Dec-11 05:52N 54°28' E 009°50'0 0.0
2019-Dec-11 04:10N 54°28' E 009°50'0 0.0
2019-Dec-11 03:27N 54°28' E 009°50'0 0.0
2019-Dec-11 03:00N 54°28' E 009°50'0 0.0
2019-Dec-10 22:52N 54°28' E 009°50'0 0.0
2019-Dec-10 21:51N 54°28' E 009°50'0 0.0
2019-Dec-10 20:19N 54°28' E 009°50'16 8.4
2019-Dec-10 18:27N 54°28' E 010°17'2110.3
2019-Dec-10 16:26N 54°23' E 010°52'16 8.2
2019-Dec-10 14:29N 54°25' E 011°19'12 5.9
2019-Dec-10 12:33N 54°14' E 011°25'56 1.9
2019-Dec-09 06:59N 54°28' E 009°51'0 0.1
2019-Dec-09 04:30N 54°28' E 009°52'0 0.0
2019-Dec-09 03:28N 54°28' E 009°52'0 0.0
2019-Dec-08 22:25N 54°28' E 009°52'0 0.0
2019-Dec-08 20:20N 54°28' E 009°52'0 0.0
2019-Dec-08 19:50N 54°28' E 009°52'0 0.0
2019-Dec-08 17:58N 54°28' E 009°52'0 0.0
2019-Dec-08 16:47N 54°28' E 009°52'0 0.0
2019-Dec-08 12:44N 54°28' E 009°52'0 0.0
2019-Dec-08 10:58N 54°28' E 009°52'0 0.0
2019-Dec-08 09:52N 54°28' E 009°52'0 0.0
2019-Dec-08 09:00N 54°28' E 009°52'0 0.0
2019-Dec-08 03:22N 54°28' E 009°52'0 0.0
2019-Dec-08 02:52N 54°28' E 009°52'0 0.0
2019-Dec-08 02:24N 54°28' E 009°52'0 0.0
2019-Dec-08 01:22N 54°28' E 009°52'0 0.0
2019-Dec-07 23:57N 54°28' E 009°52'0 0.0
2019-Dec-07 23:30N 54°28' E 009°52'0 0.0
2019-Dec-07 21:20N 54°28' E 009°52'0 0.0
2019-Dec-07 20:25N 54°28' E 009°52'0 0.0
2019-Dec-07 15:30N 54°28' E 009°52'0 0.0
2019-Dec-07 14:29N 54°28' E 009°52'0 0.0
2019-Dec-07 13:51N 54°28' E 009°52'0 0.0
2019-Dec-07 10:30N 54°28' E 009°52'0 0.0
2019-Dec-07 09:27N 54°28' E 009°52'0 0.0
2019-Dec-07 08:19N 54°28' E 009°52'0 0.0
2019-Dec-07 07:00N 54°28' E 009°52'0 0.0
2019-Dec-07 06:23N 54°28' E 009°52'0 0.0
2019-Dec-07 04:28N 54°28' E 009°52'0 0.0
2019-Dec-07 02:51N 54°28' E 009°52'0 0.0
2019-Dec-07 00:58N 54°28' E 009°52'0 0.0
2019-Dec-07 00:00N 54°28' E 009°52'0 0.0
2019-Dec-06 23:30N 54°28' E 009°52'0 0.0
2019-Dec-06 21:29N 54°28' E 009°52'0 0.0
2019-Dec-06 20:51N 54°28' E 009°52'0 0.0
2019-Dec-06 19:59N 54°28' E 009°52'0 0.0
2019-Dec-06 19:30N 54°28' E 009°52'0 0.0
2019-Dec-06 17:55N 54°28' E 009°52'0 0.0
2019-Dec-06 16:59N 54°28' E 009°52'0 0.0
2019-Dec-06 15:56N 54°28' E 009°52'0 0.0
2019-Dec-06 14:30N 54°28' E 009°52'0 0.0
2019-Dec-06 13:46N 54°28' E 009°52'0 0.0
2019-Dec-06 12:58N 54°28' E 009°52'0 0.0
2019-Dec-06 12:28N 54°28' E 009°52'0 0.0
2019-Dec-06 11:50N 54°28' E 009°52'0 0.0
2019-Dec-06 10:53N 54°28' E 009°52'0 0.0
2019-Dec-06 06:59N 54°28' E 009°52'0 0.0
2019-Dec-06 06:21N 54°28' E 009°52'0 0.0
2019-Dec-06 04:30N 54°28' E 009°52'0 0.0
2019-Dec-06 01:47N 54°28' E 009°52'0 0.0
2019-Dec-06 01:27N 54°28' E 009°52'0 0.0
2019-Dec-05 22:17N 54°28' E 009°52'0 0.0
2019-Dec-05 19:29N 54°28' E 009°52'0 0.0
2019-Dec-05 18:30N 54°28' E 009°52'0 0.0
2019-Dec-05 17:23N 54°28' E 009°52'0 0.0
2019-Dec-05 16:28N 54°28' E 009°52'0 0.0
2019-Dec-05 15:26N 54°28' E 009°52'0 0.0
2019-Dec-05 13:27N 54°28' E 009°52'0 0.0
2019-Dec-05 12:52N 54°28' E 009°52'0 0.0
2019-Dec-05 08:36N 54°28' E 009°52'0 0.0
2019-Dec-05 05:42N 54°28' E 009°52'0 0.0
2019-Dec-05 05:20N 54°28' E 009°52'0 0.0
2019-Dec-05 04:56N 54°28' E 009°52'0 0.0
2019-Dec-05 01:50N 54°28' E 009°52'0 0.0
2019-Dec-05 00:39N 54°28' E 009°52'0 0.0
2019-Dec-04 18:49N 54°28' E 009°52'0 0.0
2019-Dec-04 16:53N 54°28' E 009°52'1 0.1
2019-Dec-04 12:00N 54°28' E 009°53'10 0.4
2019-Dec-03 11:25N 54°38' E 009°56'9 4.4
2019-Dec-03 09:25N 54°32' E 009°44'6 6.7
2019-Dec-03 08:35N 54°36' E 009°51'4 8.4
2019-Dec-03 08:09N 54°38' E 009°56'2 2.2
2019-Dec-03 07:26N 54°39' E 009°56'0 0.0
2019-Dec-03 06:29N 54°39' E 009°56'0 0.0
2019-Dec-03 05:28N 54°39' E 009°56'0 0.0
2019-Dec-03 04:30N 54°39' E 009°56'0 0.0
2019-Dec-03 03:50N 54°39' E 009°56'0 0.0
2019-Dec-03 03:26N 54°39' E 009°56'0 0.0
2019-Dec-03 00:24N 54°39' E 009°56'0 0.0
2019-Dec-02 22:59N 54°39' E 009°56'0 0.0
2019-Dec-02 22:27N 54°39' E 009°56'0 0.0
2019-Dec-02 17:04N 54°39' E 009°56'0 0.0
2019-Dec-02 16:59N 54°39' E 009°56'0 0.0
2019-Dec-02 15:51N 54°39' E 009°56'7 1.5
2019-Dec-02 11:24N 54°42' E 010°07'11 3.9
2019-Dec-02 08:28N 54°30' E 010°07'8 8.5
2019-Dec-02 07:30N 54°28' E 009°53'1 1.4
2019-Dec-02 07:00N 54°28' E 009°52'0 0.0
2019-Dec-02 05:53N 54°28' E 009°52'0 0.0
2019-Dec-02 04:24N 54°28' E 009°52'0 0.0
2019-Dec-02 03:50N 54°28' E 009°52'0 0.0
2019-Dec-02 03:08N 54°28' E 009°52'0 0.0
2019-Dec-02 01:29N 54°28' E 009°52'0 0.0
2019-Dec-01 23:29N 54°28' E 009°52'0 0.0
2019-Dec-01 19:59N 54°28' E 009°52'0 0.0
2019-Dec-01 18:26N 54°28' E 009°52'0 0.0
2019-Dec-01 16:25N 54°28' E 009°52'0 0.0
2019-Dec-01 15:56N 54°28' E 009°52'0 0.0
2019-Dec-01 13:55N 54°28' E 009°52'0 0.0
2019-Dec-01 12:58N 54°28' E 009°52'0 0.0
2019-Dec-01 12:00N 54°28' E 009°52'0 0.0
2019-Dec-01 11:30N 54°28' E 009°52'  

Dump ship's entire track history